Time;durP1;ratioP1;P1;durP2;ratioP2;P2;SDS_P1;SDS_P2;PMS_P1;PMS_P2;Temp;Humidity;BMP_temperature;BMP_pressure;BME280_temperature;BME280_humidity;BME280_pressure;Samples;Min_cycle;Max_cycle;Signal;HPM_P1;HPM_P2
2021/03/27 00:00:51;;;;;;;10.00;7.15;;;;;;;5.13;100.00;93127.34;2098323;28;20024;-84
2021/03/27 00:01:54;;;;;;;7.70;6.65;;;;;;;5.14;100.00;93126.22;2100772;28;20021;-84
2021/03/27 00:03:03;;;;;;;7.88;7.10;;;;;;;5.07;100.00;93128.09;2106900;28;20369;-84
2021/03/27 00:04:21;;;;;;;9.68;7.10;;;;;;;5.05;100.00;93117.91;2098916;28;20087;-83
2021/03/27 00:05:27;;;;;;;7.75;6.78;;;;;;;5.04;100.00;93124.31;2094519;28;20080;-82
2021/03/27 00:06:41;;;;;;;8.82;6.55;;;;;;;5.02;100.00;93116.75;2091400;28;20021;-83
2021/03/27 00:07:44;;;;;;;7.45;6.65;;;;;;;5.01;100.00;93109.94;2095586;28;20115;-84
2021/03/27 00:08:59;;;;;;;7.93;6.53;;;;;;;4.99;100.00;93100.88;2082120;28;20033;-84
2021/03/27 00:10:33;;;;;;;7.55;6.65;;;;;;;4.98;100.00;93099.34;2093724;28;20119;-83
2021/03/27 00:12:02;;;;;;;8.05;6.80;;;;;;;5.00;100.00;93081.19;2111116;28;20028;-84
2021/03/27 00:13:23;;;;;;;7.30;5.85;;;;;;;4.98;100.00;93075.53;2114259;28;20031;-82
2021/03/27 00:14:53;;;;;;;8.10;6.65;;;;;;;5.00;100.00;93081.19;2105948;28;20016;-83
2021/03/27 00:16:07;;;;;;;8.50;7.35;;;;;;;4.99;100.00;93079.66;2097582;28;20032;-86
2021/03/27 00:17:16;;;;;;;6.57;5.97;;;;;;;4.98;100.00;93075.53;2097326;28;20064;-84
2021/03/27 00:18:25;;;;;;;7.88;6.53;;;;;;;4.97;100.00;93082.72;2100471;28;20028;-83
2021/03/27 00:19:38;;;;;;;8.73;7.05;;;;;;;4.95;100.00;93087.63;2106614;28;20028;-82
2021/03/27 00:20:54;;;;;;;7.93;7.13;;;;;;;4.96;100.00;93088.38;2100086;28;20024;-84
2021/03/27 00:22:00;;;;;;;8.10;7.00;;;;;;;4.95;100.00;93090.25;2092329;28;20539;-84
2021/03/27 00:23:09;;;;;;;11.25;7.18;;;;;;;4.96;100.00;93091.03;2083127;28;20040;-83
2021/03/27 00:24:21;;;;;;;9.20;7.32;;;;;;;4.94;100.00;93094.06;2100531;28;20021;-86
2021/03/27 00:25:30;;;;;;;7.72;6.75;;;;;;;4.99;100.00;93096.31;2108431;28;20493;-86
2021/03/27 00:26:36;;;;;;;9.32;6.95;;;;;;;4.97;100.00;93090.66;2099148;28;20020;-85
2021/03/27 00:28:01;;;;;;;8.15;7.30;;;;;;;4.97;100.00;93093.31;2091400;28;20032;-82
2021/03/27 00:29:06;;;;;;;7.85;7.05;;;;;;;5.00;100.00;93084.59;2096510;28;20028;-83
2021/03/27 00:30:12;;;;;;;7.03;6.32;;;;;;;5.04;100.00;93092.53;2107500;28;20047;-85
2021/03/27 00:31:16;;;;;;;6.82;6.20;;;;;;;5.02;100.00;93092.91;2115117;28;20030;-84
2021/03/27 00:32:25;;;;;;;8.00;6.82;;;;;;;5.07;100.00;93091.03;2106554;28;20028;-86
2021/03/27 00:33:33;;;;;;;7.87;7.10;;;;;;;5.05;100.00;93089.50;2108072;28;20416;-82
2021/03/27 00:34:39;;;;;;;8.10;6.63;;;;;;;5.03;100.00;93091.03;2107629;28;20426;-85
2021/03/27 00:35:44;;;;;;;8.30;6.75;;;;;;;5.02;100.00;93089.50;2107495;28;20024;-85
2021/03/27 00:36:53;;;;;;;7.95;6.80;;;;;;;5.01;100.00;93088.75;2090447;28;20425;-83
2021/03/27 00:37:57;;;;;;;8.25;6.93;;;;;;;5.03;100.00;93094.41;2085614;28;20120;-85
2021/03/27 00:39:30;;;;;;;9.30;7.25;;;;;;;4.99;100.00;93091.03;2098892;28;20039;-84
2021/03/27 00:40:39;;;;;;;7.90;6.68;;;;;;;4.95;100.00;93087.63;2073236;28;20479;-85
2021/03/27 00:41:47;;;;;;;8.57;6.93;;;;;;;4.94;100.00;93085.34;2098180;28;20070;-83
2021/03/27 00:42:58;;;;;;;9.50;7.55;;;;;;;4.98;100.00;93084.22;2099015;28;20025;-83
2021/03/27 00:44:00;;;;;;;8.00;6.72;;;;;;;4.97;100.00;93087.25;2098536;28;20063;-83
2021/03/27 00:45:26;;;;;;;8.32;6.72;;;;;;;5.01;100.00;93090.66;2098120;28;20020;-82
2021/03/27 00:46:28;;;;;;;6.90;6.20;;;;;;;5.01;100.00;93088.00;2088011;28;20036;-84
2021/03/27 00:47:31;;;;;;;8.15;7.22;;;;;;;5.01;100.00;93091.41;2089889;28;20082;-83
2021/03/27 00:48:36;;;;;;;7.72;6.82;;;;;;;5.04;100.00;93095.94;2098676;28;20024;-84
2021/03/27 00:49:44;;;;;;;8.40;7.60;;;;;;;5.01;100.00;93088.00;2106913;28;20020;-84
2021/03/27 00:50:52;;;;;;;11.38;7.10;;;;;;;5.07;100.00;93083.81;2106366;28;20023;-82
2021/03/27 00:51:56;;;;;;;10.43;7.78;;;;;;;5.00;100.00;93081.19;2100003;28;20024;-82
2021/03/27 00:53:01;;;;;;;8.68;7.13;;;;;;;5.03;100.00;93081.19;2106763;28;20020;-85
2021/03/27 00:54:19;;;;;;;8.30;7.43;;;;;;;5.03;100.00;93086.47;2106390;28;20084;-83
2021/03/27 00:55:47;;;;;;;8.95;7.50;;;;;;;5.02;100.00;93079.66;2094438;28;20127;-85
2021/03/27 00:57:06;;;;;;;8.43;7.20;;;;;;;5.00;100.00;93076.66;2088012;28;20037;-85
2021/03/27 00:58:15;;;;;;;7.93;7.13;;;;;;;4.97;100.00;93076.66;2106372;28;20030;-85
2021/03/27 00:59:25;;;;;;;10.98;7.53;;;;;;;4.96;100.00;93075.13;2090685;28;20115;-83
2021/03/27 01:00:36;;;;;;;7.90;7.10;;;;;;;4.98;100.00;93081.56;2092520;28;20116;-83
2021/03/27 01:01:40;;;;;;;9.20;7.65;;;;;;;4.95;100.00;93073.63;2099309;28;20025;-83
2021/03/27 01:02:46;;;;;;;8.80;7.40;;;;;;;4.95;100.00;93077.03;2107130;28;20421;-84
2021/03/27 01:03:59;;;;;;;9.68;7.80;;;;;;;4.97;100.00;93077.41;2106270;28;20036;-84
2021/03/27 01:05:04;;;;;;;8.73;7.80;;;;;;;4.98;100.00;93078.91;2092990;28;20025;-84
2021/03/27 01:06:13;;;;;;;9.43;7.93;;;;;;;4.96;100.00;93077.78;2099073;28;20108;-83
2021/03/27 01:07:17;;;;;;;9.20;7.97;;;;;;;4.93;100.00;93076.66;2098936;28;20067;-83
2021/03/27 01:08:21;;;;;;;11.00;7.45;;;;;;;4.94;100.00;93072.88;2090366;28;20052;-83
2021/03/27 01:09:35;;;;;;;10.85;8.25;;;;;;;4.96;100.00;93075.91;2090480;28;20032;-85
2021/03/27 01:10:42;;;;;;;9.70;8.02;;;;;;;4.99;100.00;93071.72;2101588;28;20046;-85
2021/03/27 01:11:49;;;;;;;10.35;7.63;;;;;;;4.98;100.00;93068.31;2107081;28;20028;-84
2021/03/27 01:12:52;;;;;;;8.35;7.55;;;;;;;4.98;100.00;93063.03;2106819;28;20031;-83
2021/03/27 01:13:56;;;;;;;8.70;7.63;;;;;;;4.96;100.00;93060.03;2098248;28;20023;-83
2021/03/27 01:15:01;;;;;;;8.82;7.65;;;;;;;5.00;100.00;93052.03;2098272;28;20024;-84
2021/03/27 01:16:07;;;;;;;10.85;8.23;;;;;;;4.90;100.00;93056.22;2098261;28;20354;-83
2021/03/27 01:17:10;;;;;;;9.23;8.07;;;;;;;4.98;100.00;93056.97;2099094;28;20111;-83
2021/03/27 01:18:19;;;;;;;8.65;7.30;;;;;;;5.08;100.00;93060.75;2105955;28;20135;-83
2021/03/27 01:19:30;;;;;;;10.57;8.13;;;;;;;5.01;100.00;93056.22;2091436;28;20094;-82
2021/03/27 01:20:38;;;;;;;9.43;8.00;;;;;;;5.04;100.00;93050.16;2107972;28;20034;-84
2021/03/27 01:21:41;;;;;;;9.50;7.63;;;;;;;5.00;100.00;93058.13;2114420;28;20066;-83
2021/03/27 01:22:44;;;;;;;8.93;7.60;;;;;;;5.03;100.00;93051.28;2106360;28;20024;-84
2021/03/27 01:23:44;;;;;;;10.55;8.25;;;;;;;4.96;100.00;93046.78;2106234;28;20063;-83
2021/03/27 01:24:47;;;;;;;11.10;7.68;;;;;;;4.97;100.00;93050.94;2106108;28;20020;-84
2021/03/27 01:25:48;;;;;;;9.63;8.25;;;;;;;4.98;100.00;93049.78;2097865;28;20028;-82
2021/03/27 01:26:52;;;;;;;9.10;7.82;;;;;;;5.01;100.00;93049.03;2089520;28;20473;-83
2021/03/27 01:28:25;;;;;;;8.82;7.93;;;;;;;4.99;100.00;93045.25;2098277;28;20024;-83
2021/03/27 01:29:40;;;;;;;10.38;7.95;;;;;;;4.96;100.00;93049.41;2091619;28;20089;-83
2021/03/27 01:30:55;;;;;;;8.90;7.50;;;;;;;4.98;100.00;93046.38;2093248;28;20067;-84
2021/03/27 01:32:15;;;;;;;11.77;7.28;;;;;;;4.96;100.00;93043.34;2099245;28;20493;-83
2021/03/27 01:33:34;;;;;;;10.02;7.55;;;;;;;4.98;100.00;93051.69;2103208;28;20130;-82
2021/03/27 01:34:43;;;;;;;11.50;7.28;;;;;;;4.98;100.00;93049.78;2100630;28;20035;-85
2021/03/27 01:35:54;;;;;;;7.93;7.13;;;;;;;4.96;100.00;93048.63;2091474;28;20017;-84
2021/03/27 01:37:03;;;;;;;10.25;7.90;;;;;;;4.99;100.00;93043.34;2100726;28;20421;-85
2021/03/27 01:38:25;;;;;;;7.90;7.10;;;;;;;5.02;100.00;93039.19;2107285;28;20031;-86
2021/03/27 01:39:32;;;;;;;8.00;7.20;;;;;;;5.01;100.00;93035.03;2100532;28;20039;-84
2021/03/27 01:40:57;;;;;;;11.07;8.10;;;;;;;5.00;100.00;93038.81;2099480;28;20089;-84
2021/03/27 01:42:17;;;;;;;9.25;7.20;;;;;;;4.93;100.00;93039.59;2101056;28;20038;-83
2021/03/27 01:43:24;;;;;;;9.40;7.50;;;;;;;4.84;100.00;93041.13;2094613;28;20067;-84
2021/03/27 01:44:36;;;;;;;9.48;7.63;;;;;;;4.91;100.00;93036.53;2099268;28;20482;-84
2021/03/27 01:45:55;;;;;;;8.35;7.20;;;;;;;4.93;100.00;93030.88;2099366;28;20439;-83
2021/03/27 01:47:34;;;;;;;7.85;7.05;;;;;;;4.95;100.00;93033.88;2091608;28;20029;-82
2021/03/27 01:49:14;;;;;;;7.50;6.32;;;;;;;4.92;100.00;93032.78;2099171;28;20093;-85
2021/03/27 01:50:32;;;;;;;7.70;6.80;;;;;;;4.92;100.00;93034.69;2099062;28;20047;-84
2021/03/27 01:51:38;;;;;;;7.85;6.68;;;;;;;4.97;100.00;93044.88;2097756;28;20032;-84
2021/03/27 01:52:54;;;;;;;8.07;7.22;;;;;;;4.96;100.00;93048.63;2090869;28;20497;-83
2021/03/27 01:54:51;;;;;;;8.48;6.65;;;;;;;4.93;100.00;93044.88;2091398;28;20086;-86
2021/03/27 01:56:02;;;;;;;8.95;6.57;;;;;;;4.90;100.00;93047.53;2088411;28;20469;-83
2021/03/27 01:57:25;;;;;;;8.63;6.60;;;;;;;4.92;100.00;93053.97;2072695;28;20570;-86
2021/03/27 01:58:31;;;;;;;8.50;7.20;;;;;;;4.90;100.00;93056.22;2070258;28;20490;-84
2021/03/27 01:59:51;;;;;;;7.15;6.45;;;;;;;4.93;100.00;93063.41;2075494;28;20130;-83
2021/03/27 02:01:11;;;;;;;7.50;6.80;;;;;;;4.94;100.00;93072.88;2084383;28;20029;-83
2021/03/27 02:04:23;;;;;;;7.40;6.05;;;;;;;4.99;100.00;93085.72;2134842;27;20179;-80
2021/03/27 02:05:35;;;;;;;8.07;5.72;;;;;;;4.96;100.00;93081.22;2121826;27;20043;-82
2021/03/27 02:06:42;;;;;;;8.30;6.25;;;;;;;4.93;100.00;93092.56;2114057;28;20610;-81
2021/03/27 02:07:55;;;;;;;6.13;5.38;;;;;;;5.03;100.00;93093.66;2114983;28;20047;-81
2021/03/27 02:09:18;;;;;;;7.43;5.50;;;;;;;5.05;100.00;93105.41;2113111;27;20544;-82
2021/03/27 02:10:43;;;;;;;7.57;5.68;;;;;;;5.06;100.00;93095.56;2121799;27;20049;-80
2021/03/27 02:11:46;;;;;;;6.97;4.30;;;;;;;5.17;100.00;93108.78;2124854;27;20027;-81
2021/03/27 02:13:08;;;;;;;4.45;4.03;;;;;;;5.18;100.00;93102.34;2120681;27;20513;-81
2021/03/27 02:14:15;;;;;;;4.03;3.63;;;;;;;5.22;100.00;93101.22;2125401;27;20072;-81
2021/03/27 02:15:50;;;;;;;3.70;3.33;;;;;;;5.14;100.00;93097.06;2121055;27;20517;-82
2021/03/27 02:16:57;;;;;;;3.28;2.90;;;;;;;5.22;100.00;93103.09;2115392;27;20039;-82
2021/03/27 02:18:03;;;;;;;3.72;2.90;;;;;;;5.25;100.00;93107.63;2125744;27;20468;-81
2021/03/27 02:19:35;;;;;;;3.40;3.10;;;;;;;5.21;100.00;93105.00;2125055;27;20023;-81
2021/03/27 02:20:54;;;;;;;2.95;2.42;;;;;;;5.27;100.00;93105.38;2123016;27;20031;-80
2021/03/27 02:22:12;;;;;;;3.65;3.20;;;;;;;5.18;100.00;93099.69;2115974;27;20026;-85
2021/03/27 02:23:28;;;;;;;3.67;2.83;;;;;;;5.21;100.00;93104.25;2118340;28;20090;-80
2021/03/27 02:24:37;;;;;;;2.75;2.55;;;;;;;5.10;100.00;93106.91;2113686;28;20024;-81
2021/03/27 02:26:00;;;;;;;3.35;2.88;;;;;;;5.12;100.00;93117.88;2100162;28;20520;-81
2021/03/27 02:27:06;;;;;;;2.50;2.30;;;;;;;5.17;100.00;93108.78;2111733;27;20054;-80
2021/03/27 02:28:48;;;;;;;2.38;2.17;;;;;;;5.21;100.00;93110.28;2124771;27;20023;-80
2021/03/27 02:29:57;;;;;;;2.53;2.00;;;;;;;5.26;100.00;93109.91;2102893;28;20075;-81
2021/03/27 02:31:06;;;;;;;2.10;1.98;;;;;;;5.35;100.00;93103.44;2119292;27;20063;-83
2021/03/27 02:32:09;;;;;;;3.25;1.65;;;;;;;5.26;100.00;93111.78;2124988;27;20039;-81
2021/03/27 02:33:34;;;;;;;2.05;1.80;;;;;;;5.19;100.00;93109.19;2124645;27;20034;-82
2021/03/27 02:34:43;;;;;;;1.85;1.75;;;;;;;5.11;100.00;93113.72;2117319;27;20291;-81
2021/03/27 02:35:49;;;;;;;2.42;1.73;;;;;;;5.17;100.00;93103.50;2123496;27;20106;-81
2021/03/27 02:37:01;;;;;;;1.70;1.58;;;;;;;5.12;100.00;93109.94;2120835;27;20472;-81
2021/03/27 02:38:16;;;;;;;1.42;1.33;;;;;;;5.14;100.00;93106.91;2117366;28;20024;-80
2021/03/27 02:39:23;;;;;;;2.22;1.15;;;;;;;5.08;100.00;93109.19;2113471;27;20676;-82
2021/03/27 02:40:33;;;;;;;2.05;1.55;;;;;;;5.10;100.00;93112.22;2116911;28;20024;-81
2021/03/27 02:41:58;;;;;;;1.50;1.40;;;;;;;5.08;100.00;93108.41;2117504;28;20036;-81
2021/03/27 02:43:17;;;;;;;2.28;1.20;;;;;;;4.98;100.00;93108.06;2108026;28;20534;-81
2021/03/27 02:44:32;;;;;;;1.25;1.20;;;;;;;5.01;100.00;93115.25;2113405;27;20038;-82
2021/03/27 02:45:42;;;;;;;2.20;1.13;;;;;;;4.98;100.00;93120.53;2124449;27;20089;-81
2021/03/27 02:46:48;;;;;;;1.83;1.40;;;;;;;4.98;100.00;93121.31;2117420;27;20086;-81
2021/03/27 02:48:02;;;;;;;1.55;1.45;;;;;;;4.94;100.00;93122.44;2120967;27;20030;-81
2021/03/27 02:49:28;;;;;;;1.30;1.20;;;;;;;4.99;100.00;93130.75;2115196;28;20568;-81
2021/03/27 02:50:44;;;;;;;1.30;1.20;;;;;;;5.08;100.00;93137.56;2103724;28;20032;-82
2021/03/27 02:52:37;;;;;;;1.30;1.20;;;;;;;5.08;100.00;93126.97;2118339;28;20035;-81
2021/03/27 02:53:55;;;;;;;1.00;1.00;;;;;;;5.01;100.00;93119.78;2068124;28;20166;-81
2021/03/27 02:55:02;;;;;;;1.35;1.10;;;;;;;4.97;100.00;93125.09;2120047;27;20046;-82
2021/03/27 02:56:27;;;;;;;2.70;1.30;;;;;;;4.98;100.00;93121.31;2107110;28;20063;-82
2021/03/27 02:57:42;;;;;;;1.27;1.05;;;;;;;4.95;100.00;93119.41;2117252;27;20039;-81
2021/03/27 02:59:01;;;;;;;1.25;1.15;;;;;;;4.92;100.00;93114.88;2124830;27;20358;-82
2021/03/27 03:00:07;;;;;;;1.30;1.20;;;;;;;4.93;100.00;93116.38;2122152;27;20027;-82
2021/03/27 03:01:30;;;;;;;1.42;1.33;;;;;;;4.95;100.00;93118.66;2107448;28;20412;-81
2021/03/27 03:02:46;;;;;;;1.17;1.00;;;;;;;4.93;100.00;93116.38;2117016;27;20399;-81
2021/03/27 03:04:00;;;;;;;2.65;1.30;;;;;;;4.92;100.00;93114.13;2119603;27;20043;-83
2021/03/27 03:05:13;;;;;;;1.52;0.90;;;;;;;4.90;100.00;93114.50;2117516;28;20024;-81
2021/03/27 03:06:27;;;;;;;1.10;1.00;;;;;;;4.90;100.00;93125.09;2113165;28;20016;-80
2021/03/27 03:07:49;;;;;;;1.00;1.00;;;;;;;4.88;100.00;93114.13;2115485;27;20058;-81
2021/03/27 03:09:15;;;;;;;1.35;1.00;;;;;;;4.84;100.00;93112.63;2114646;27;20107;-82
2021/03/27 03:10:42;;;;;;;1.00;1.00;;;;;;;4.80;100.00;93112.59;2085387;28;20621;-82
2021/03/27 03:12:01;;;;;;;1.17;0.93;;;;;;;4.78;100.00;93104.28;2122828;27;20472;-81
2021/03/27 03:13:36;;;;;;;1.90;1.17;;;;;;;4.80;100.00;93094.81;2122253;27;20387;-80
2021/03/27 03:15:07;;;;;;;1.20;1.00;;;;;;;4.89;100.00;93097.09;2108914;27;20101;-80
2021/03/27 03:16:28;;;;;;;1.20;1.20;;;;;;;4.85;100.00;93091.03;2117445;27;20037;-81
2021/03/27 03:17:44;;;;;;;2.72;1.17;;;;;;;4.78;100.00;93091.81;2110384;27;20031;-82
2021/03/27 03:18:59;;;;;;;1.27;1.17;;;;;;;4.78;100.00;93091.81;2103484;28;20031;-82
2021/03/27 03:20:17;;;;;;;1.38;0.90;;;;;;;4.77;100.00;93094.81;2103164;27;20035;-82
2021/03/27 03:21:41;;;;;;;1.20;1.10;;;;;;;4.81;100.00;93111.47;2105762;28;20504;-83
2021/03/27 03:23:05;;;;;;;1.00;1.00;;;;;;;4.93;100.00;93105.78;2105348;28;20031;-82
2021/03/27 03:24:26;;;;;;;1.10;1.05;;;;;;;4.74;100.00;93114.09;2111251;27;20038;-81
2021/03/27 03:25:30;;;;;;;1.30;1.20;;;;;;;4.68;100.00;93103.16;2109991;27;20379;-81
2021/03/27 03:26:43;;;;;;;2.08;1.33;;;;;;;4.67;100.00;93106.19;2108220;28;20031;-81
2021/03/27 03:27:56;;;;;;;1.40;1.30;;;;;;;4.59;100.00;93102.00;2110039;28;20082;-81
2021/03/27 03:29:17;;;;;;;1.17;1.10;;;;;;;4.58;100.00;93106.56;2108758;27;20103;-83
2021/03/27 03:30:48;;;;;;;1.38;1.27;;;;;;;4.55;100.00;93116.00;2114561;27;20395;-81
2021/03/27 03:32:07;;;;;;;1.20;1.10;;;;;;;4.55;100.00;93118.63;2104961;27;20039;-82
2021/03/27 03:33:30;;;;;;;1.23;1.13;;;;;;;4.58;100.00;93125.09;2118783;27;20031;-82
2021/03/27 03:34:58;;;;;;;1.65;1.35;;;;;;;4.57;100.00;93115.63;2116677;27;20388;-82
2021/03/27 03:36:04;;;;;;;1.67;1.00;;;;;;;4.58;100.00;93129.63;2115830;27;20031;-82
2021/03/27 03:37:17;;;;;;;2.65;1.30;;;;;;;4.68;100.00;93124.31;2110835;28;20031;-82
2021/03/27 03:38:37;;;;;;;1.30;1.15;;;;;;;4.64;100.00;93136.81;2114645;27;20051;-82
2021/03/27 03:40:14;;;;;;;1.58;1.23;;;;;;;4.53;100.00;93139.44;2118775;27;20092;-81
2021/03/27 03:41:34;;;;;;;1.42;1.33;;;;;;;4.57;100.00;93144.75;2118840;27;20046;-82
2021/03/27 03:42:53;;;;;;;;;;;;;;;4.49;100.00;93141.34;2117367;27;20071;-82
2021/03/27 03:43:56;;;;;;;1.40;1.30;;;;;;;4.50;100.00;93148.13;2109142;27;19922;-82
2021/03/27 03:45:14;;;;;;;1.40;1.30;;;;;;;4.48;100.00;93157.59;2109930;28;20106;-85
2021/03/27 03:46:32;;;;;;;1.85;1.70;;;;;;;4.64;100.00;93165.16;2118689;27;20028;-81
2021/03/27 03:47:54;;;;;;;1.42;1.33;;;;;;;4.64;100.00;93165.91;2108028;28;20039;-81
2021/03/27 03:49:40;;;;;;;3.00;1.75;;;;;;;4.65;100.00;93171.97;2112447;27;20091;-84
2021/03/27 03:50:43;;;;;;;2.13;2.03;;;;;;;4.72;100.00;93204.50;2115759;27;20035;-82
2021/03/27 03:51:46;;;;;;;2.00;1.85;;;;;;;4.80;100.00;93200.75;2118852;27;20030;-82
2021/03/27 03:53:15;;;;;;;2.20;2.00;;;;;;;4.76;100.00;93202.63;2109729;28;20062;-83
2021/03/27 03:55:01;;;;;;;3.13;1.77;;;;;;;4.74;100.00;93218.16;2109031;28;20031;-81
2021/03/27 03:56:13;;;;;;;2.08;1.20;;;;;;;4.69;100.00;93213.19;2097624;28;20039;-81
2021/03/27 03:57:30;;;;;;;3.13;1.42;;;;;;;4.57;99.90;93213.56;2104697;27;20102;-82
2021/03/27 03:58:52;;;;;;;1.20;0.90;;;;;;;4.51;100.00;93199.94;2115904;27;20484;-83
2021/03/27 03:59:58;;;;;;;1.50;0.60;;;;;;;4.38;99.75;93204.06;2114968;27;20031;-82
2021/03/27 04:01:23;;;;;;;0.73;0.73;;;;;;;4.34;97.63;93203.28;2110576;28;20034;-82
2021/03/27 04:02:26;;;;;;;0.60;0.60;;;;;;;4.27;97.68;93206.69;2088893;28;20052;-81
2021/03/27 04:03:59;;;;;;;0.70;0.70;;;;;;;4.16;98.82;93219.09;2119447;27;20046;-81
2021/03/27 04:05:02;;;;;;;0.70;0.70;;;;;;;4.13;100.00;93219.09;2092432;28;20605;-83
2021/03/27 04:06:07;;;;;;;0.63;0.63;;;;;;;4.04;99.27;93232.66;2109998;27;20081;-82
2021/03/27 04:07:12;;;;;;;0.65;0.65;;;;;;;3.91;99.89;93237.50;2118181;27;20046;-80
2021/03/27 04:08:24;;;;;;;0.60;0.60;;;;;;;3.81;99.87;93243.47;2110232;27;20042;-80
2021/03/27 04:09:33;;;;;;;0.63;0.50;;;;;;;3.68;99.22;93252.84;2115098;27;20046;-80
2021/03/27 04:10:35;;;;;;;0.60;0.50;;;;;;;3.57;99.54;93263.34;2118387;27;20672;-83
2021/03/27 04:11:52;;;;;;;0.60;0.60;;;;;;;3.50;100.00;93273.88;2118520;27;20483;-82
2021/03/27 04:13:13;;;;;;;0.40;0.40;;;;;;;3.48;100.00;93270.84;2115747;27;20053;-82
2021/03/27 04:14:30;;;;;;;0.70;0.70;;;;;;;3.30;100.00;93272.59;2118340;27;20059;-83
2021/03/27 04:15:40;;;;;;;0.70;0.70;;;;;;;3.35;100.00;93273.00;2113469;27;20089;-84
2021/03/27 04:16:43;;;;;;;1.45;0.70;;;;;;;3.32;100.00;93281.66;2106194;28;20394;-84
2021/03/27 04:18:01;;;;;;;0.77;0.60;;;;;;;3.26;100.00;93305.00;2103411;27;20028;-83
2021/03/27 04:19:14;;;;;;;0.50;0.50;;;;;;;3.16;100.00;93303.03;2107884;27;20055;-82
2021/03/27 04:20:21;;;;;;;0.52;0.52;;;;;;;3.12;100.00;93293.56;2103538;28;20049;-84
2021/03/27 04:21:29;;;;;;;0.80;0.70;;;;;;;3.08;100.00;93301.47;2092016;28;20032;-84
2021/03/27 04:22:37;;;;;;;1.42;0.60;;;;;;;3.01;100.00;93317.97;2095242;28;20477;-85
2021/03/27 04:23:46;;;;;;;0.50;0.50;;;;;;;2.99;100.00;93314.19;2096144;28;20029;-84
2021/03/27 04:24:59;;;;;;;0.60;0.60;;;;;;;2.91;100.00;93302.81;2100001;27;20036;-85
2021/03/27 04:25:59;;;;;;;0.63;0.60;;;;;;;2.98;100.00;93315.28;2108779;28;20024;-85
2021/03/27 04:27:14;;;;;;;0.50;0.50;;;;;;;2.91;100.00;93296.75;2109245;28;20034;-85
2021/03/27 04:28:19;;;;;;;0.50;0.50;;;;;;;2.79;100.00;93289.84;2119035;27;20040;-83
2021/03/27 04:29:59;;;;;;;0.60;0.50;;;;;;;2.68;100.00;93312.75;2106077;28;20039;-82
2021/03/27 04:31:26;;;;;;;0.50;0.50;;;;;;;2.74;100.00;93319.97;2107343;27;20488;-85
2021/03/27 04:33:05;;;;;;;0.60;0.60;;;;;;;2.71;100.00;93336.50;2107333;28;20032;-82
2021/03/27 04:34:33;;;;;;;0.50;0.50;;;;;;;2.62;100.00;93320.19;2068975;28;20038;-84
2021/03/27 04:35:46;;;;;;;0.68;0.68;;;;;;;2.60;100.00;93324.34;2073808;28;20041;-83
2021/03/27 04:37:06;;;;;;;1.48;1.05;;;;;;;2.53;100.00;93331.03;2073814;28;20380;-84
2021/03/27 04:38:27;;;;;;;1.13;0.55;;;;;;;2.58;100.00;93337.88;2081721;28;20037;-83
2021/03/27 04:39:31;;;;;;;1.48;0.75;;;;;;;2.52;100.00;93339.31;2093270;27;20041;-85
2021/03/27 04:40:56;;;;;;;0.93;0.70;;;;;;;2.53;100.00;93332.91;2118844;27;20043;-85
2021/03/27 04:41:59;;;;;;;0.82;0.60;;;;;;;2.53;100.00;93338.19;2116047;27;20495;-86
2021/03/27 04:43:10;;;;;;;0.65;0.65;;;;;;;2.60;100.00;93353.34;2101774;28;20032;-84
2021/03/27 04:44:20;;;;;;;0.70;0.70;;;;;;;2.56;100.00;93348.03;2095213;28;20112;-86
2021/03/27 04:45:32;;;;;;;1.08;0.85;;;;;;;2.51;99.92;93353.63;2111672;27;20384;-85
2021/03/27 04:46:43;;;;;;;1.05;0.63;;;;;;;2.57;99.90;93354.81;2119089;27;20035;-84
2021/03/27 04:47:50;;;;;;;0.63;0.60;;;;;;;2.56;100.00;93348.03;2116195;27;20458;-85
2021/03/27 04:49:14;;;;;;;0.88;0.70;;;;;;;2.52;100.00;93355.91;2098967;28;20032;-85
2021/03/27 04:50:29;;;;;;;2.17;0.65;;;;;;;2.50;100.00;93346.81;2099869;28;20499;-85
2021/03/27 04:51:48;;;;;;;0.63;0.60;;;;;;;2.41;100.00;93352.34;2103259;27;20058;-85
2021/03/27 04:53:17;;;;;;;1.90;1.10;;;;;;;2.45;100.00;93355.81;2114961;27;20031;-85
2021/03/27 04:54:35;;;;;;;1.45;0.90;;;;;;;2.36;100.00;93360.59;2109865;27;20114;-85
2021/03/27 04:55:54;;;;;;;0.80;0.80;;;;;;;2.37;100.00;93363.97;2102369;28;20044;-85
2021/03/27 04:57:32;;;;;;;0.57;0.57;;;;;;;2.39;100.00;93367.78;2106912;27;20536;-86
2021/03/27 04:58:42;;;;;;;0.70;0.60;;;;;;;2.38;100.00;93368.91;2104585;28;20096;-86
2021/03/27 04:59:49;;;;;;;2.08;0.73;;;;;;;2.41;100.00;93370.06;2104062;28;20505;-85
2021/03/27 05:00:50;;;;;;;0.77;0.77;;;;;;;2.34;100.00;93372.63;2103719;27;20505;-86
2021/03/27 05:01:56;;;;;;;1.20;0.90;;;;;;;2.38;100.00;93368.16;2110355;28;20060;-86
2021/03/27 05:03:26;;;;;;;1.42;0.65;;;;;;;2.50;100.00;93378.47;2118675;27;20400;-87
2021/03/27 05:04:59;;;;;;;1.10;0.60;;;;;;;2.40;100.00;93373.81;2115438;27;20128;-84
2021/03/27 05:06:42;;;;;;;3.40;0.60;;;;;;;2.38;100.00;93384.00;2092473;27;20532;-84
2021/03/27 05:07:52;;;;;;;1.55;0.70;;;;;;;2.43;99.86;93394.22;2108904;28;20562;-83
2021/03/27 05:08:55;;;;;;;0.68;0.68;;;;;;;2.41;96.10;93383.25;2103932;28;20035;-86
2021/03/27 05:10:09;;;;;;;0.70;0.70;;;;;;;2.33;99.66;93382.41;2110262;28;20059;-87
2021/03/27 05:11:22;;;;;;;0.73;0.68;;;;;;;2.38;100.00;93389.25;2110170;28;20024;-86
2021/03/27 05:12:41;;;;;;;0.68;0.60;;;;;;;2.34;99.32;93404.28;2096683;28;20024;-85
2021/03/27 05:13:59;;;;;;;1.05;0.70;;;;;;;2.31;100.00;93405.75;2106779;28;20036;-86
2021/03/27 05:15:06;;;;;;;0.65;0.65;;;;;;;2.31;99.69;93403.09;2107054;28;20042;-85
2021/03/27 05:16:22;;;;;;;0.60;0.60;;;;;;;2.26;99.54;93395.50;2099366;28;20025;-86
2021/03/27 05:17:40;;;;;;;0.50;0.50;;;;;;;2.25;100.00;93404.53;2100009;28;20027;-85
2021/03/27 05:19:09;;;;;;;0.68;0.60;;;;;;;2.24;100.00;93397.75;2108893;27;20048;-84
2021/03/27 05:20:28;;;;;;;0.70;0.70;;;;;;;2.32;100.00;93399.34;2105893;27;20064;-85
2021/03/27 05:21:58;;;;;;;1.23;0.77;;;;;;;2.35;100.00;93405.78;2114895;27;20068;-84
2021/03/27 05:23:29;;;;;;;0.68;0.57;;;;;;;2.32;100.00;93407.25;2110534;27;20698;-86
2021/03/27 05:25:03;;;;;;;0.52;0.52;;;;;;;2.29;99.36;93415.13;2111031;27;20031;-85
2021/03/27 05:26:21;;;;;;;1.15;0.60;;;;;;;2.23;97.85;93410.16;2108851;27;20168;-86
2021/03/27 05:27:51;;;;;;;0.57;0.57;;;;;;;2.27;98.29;93410.19;2118488;27;20054;-85
2021/03/27 05:29:14;;;;;;;0.77;0.68;;;;;;;2.22;100.00;93423.69;2101399;28;20101;-85
2021/03/27 05:30:32;;;;;;;0.50;0.50;;;;;;;2.24;98.51;93421.47;2099055;28;20032;-85
2021/03/27 05:31:42;;;;;;;0.47;0.47;;;;;;;2.12;98.69;93432.22;2103586;27;20461;-85
2021/03/27 05:33:09;;;;;;;;;;;;;;;2.13;98.06;93431.09;2103230;28;20047;-85
2021/03/27 05:34:13;;;;;;;0.73;0.70;;;;;;;2.11;100.00;93438.59;2099051;28;19938;-85
2021/03/27 05:35:32;;;;;;;2.13;0.55;;;;;;;2.06;98.51;93444.16;2102474;28;20048;-85
2021/03/27 05:36:50;;;;;;;0.68;0.60;;;;;;;2.04;99.59;93441.13;2109458;27;20028;-85
2021/03/27 05:38:11;;;;;;;0.50;0.50;;;;;;;2.00;99.13;93456.88;2112276;28;20024;-85
2021/03/27 05:39:29;;;;;;;;;;;;;;;1.91;98.75;93451.84;2108218;28;20024;-85
2021/03/27 05:41:07;;;;;;;0.30;0.30;;;;;;;2.08;97.23;93461.16;2103073;27;20385;-85
2021/03/27 05:42:35;;;;;;;1.70;0.50;;;;;;;1.99;99.82;93452.72;2106329;27;20966;-85
2021/03/27 05:44:01;;;;;;;0.65;0.60;;;;;;;2.01;97.34;93467.06;2096300;28;20839;-85
2021/03/27 05:45:35;;;;;;;0.50;0.50;;;;;;;1.98;99.01;93475.69;2104361;27;20123;-86
2021/03/27 05:46:57;;;;;;;0.40;0.40;;;;;;;1.93;99.66;93481.28;2103981;28;20458;-84
2021/03/27 05:48:40;;;;;;;1.63;0.50;;;;;;;1.88;98.67;93484.16;2109337;27;20035;-85
2021/03/27 05:50:19;;;;;;;0.77;0.60;;;;;;;1.83;100.00;93491.63;2101986;28;20478;-82
2021/03/27 05:51:42;;;;;;;0.77;0.50;;;;;;;1.73;99.31;93485.06;2083934;28;20551;-85
2021/03/27 05:53:10;;;;;;;0.40;0.40;;;;;;;1.71;98.61;93485.41;2102725;27;21148;-85
2021/03/27 05:54:25;;;;;;;0.50;0.50;;;;;;;1.66;100.00;93492.81;2104258;28;20066;-84
2021/03/27 05:55:29;;;;;;;1.33;0.60;;;;;;;1.64;98.87;93495.81;2105485;28;20122;-87
2021/03/27 05:56:50;;;;;;;3.10;0.65;;;;;;;1.72;98.56;93494.06;2101987;28;20040;-85
2021/03/27 05:58:12;;;;;;;0.82;0.50;;;;;;;1.70;98.10;93493.66;2112534;28;20994;-85
2021/03/27 05:59:34;;;;;;;1.55;0.60;;;;;;;1.75;98.18;93499.38;2116209;28;20456;-85